Time;durP1;ratioP1;P1;durP2;ratioP2;P2;SDS_P1;SDS_P2;PMS_P1;PMS_P2;Temp;Humidity;BMP_temperature;BMP_pressure;BME280_temperature;BME280_humidity;BME280_pressure;Samples;Min_cycle;Max_cycle;Signal;HPM_P1;HPM_P2
2022/06/22 00:02:30;;;;;;;6.57;5.10;;;;;;;10.80;69.58;100733.88;5054616;28;20048;-64
2022/06/22 00:05:00;;;;;;;6.33;5.47;;;;;;;10.55;68.71;100693.06;5053466;28;20482;-64
2022/06/22 00:07:38;;;;;;;7.47;4.73;;;;;;;10.87;68.91;100739.38;5054607;28;20029;-64
2022/06/22 00:10:30;;;;;;;7.47;5.03;;;;;;;10.84;69.17;100745.88;5054168;28;20028;-63
2022/06/22 00:12:58;;;;;;;6.83;5.03;;;;;;;10.78;69.22;100741.22;5052854;28;20052;-66
2022/06/22 00:15:26;;;;;;;7.47;4.80;;;;;;;10.75;69.45;100744.22;5054780;28;20123;-63
2022/06/22 00:17:52;;;;;;;7.85;5.40;;;;;;;10.83;69.42;100759.34;5054231;28;20040;-65
2022/06/22 00:20:29;;;;;;;8.00;5.13;;;;;;;10.56;69.57;100715.19;5054236;28;20045;-65
2022/06/22 00:22:58;;;;;;;9.07;4.97;;;;;;;10.69;69.61;100741.34;5054140;28;20044;-66
2022/06/22 00:25:27;;;;;;;7.40;4.68;;;;;;;10.65;69.88;100738.19;5053863;28;20037;-64
2022/06/22 00:27:52;;;;;;;9.75;4.70;;;;;;;10.72;69.87;100757.84;5052757;28;20033;-65
2022/06/22 00:30:30;;;;;;;5.83;4.17;;;;;;;10.63;70.23;100742.84;5036144;28;20342;-64
2022/06/22 00:33:12;;;;;;;7.25;5.18;;;;;;;10.69;70.37;100763.47;5053885;28;20416;-63
2022/06/22 00:35:48;;;;;;;6.23;5.07;;;;;;;10.67;70.22;100760.16;5053861;28;20435;-64
2022/06/22 00:38:36;;;;;;;5.73;4.50;;;;;;;10.64;70.94;100759.66;5054107;28;20067;-64
2022/06/22 00:41:17;;;;;;;6.93;5.00;;;;;;;10.64;70.88;100771.13;5052338;28;20485;-64
2022/06/22 00:43:43;;;;;;;6.50;5.30;;;;;;;10.59;71.20;100769.97;5053776;28;20132;-65
2022/06/22 00:46:21;;;;;;;8.73;4.50;;;;;;;10.49;70.79;100751.47;5053486;28;20124;-64
2022/06/22 00:48:51;;;;;;;8.13;5.30;;;;;;;10.46;70.91;100749.13;5053944;28;20033;-64
2022/06/22 00:51:30;;;;;;;8.93;4.27;;;;;;;10.52;70.94;100754.63;5053941;28;20074;-64
2022/06/22 00:54:05;;;;;;;7.17;5.03;;;;;;;10.46;71.39;100749.13;5053894;28;20037;-66
2022/06/22 00:56:42;;;;;;;5.93;4.27;;;;;;;10.57;71.28;100759.47;5053248;28;20044;-67
2022/06/22 00:59:53;;;;;;;7.43;4.57;;;;;;;10.60;71.19;100760.97;5053695;28;20040;-64
2022/06/22 01:03:04;;;;;;;7.70;5.37;;;;;;;10.53;70.94;100758.13;5043820;28;20049;-65
2022/06/22 01:05:39;;;;;;;5.77;4.20;;;;;;;10.48;70.83;100755.13;5042111;28;20053;-63
2022/06/22 01:08:16;;;;;;;5.03;3.90;;;;;;;10.56;71.57;100773.78;5052581;28;20133;-63
2022/06/22 01:10:51;;;;;;;6.37;4.77;;;;;;;10.55;71.53;100777.44;5051111;28;20401;-64
2022/06/22 01:13:36;;;;;;;6.50;4.60;;;;;;;10.51;71.47;100770.78;5052204;28;20036;-65
2022/06/22 01:16:07;;;;;;;7.67;4.70;;;;;;;10.45;71.56;100771.44;5052433;28;20151;-62
2022/06/22 01:18:55;;;;;;;7.03;5.30;;;;;;;10.44;71.90;100764.44;5052221;28;20515;-63
2022/06/22 01:21:28;;;;;;;6.03;4.78;;;;;;;10.34;72.13;100747.75;5052091;28;20063;-64
2022/06/22 01:24:25;;;;;;;7.70;5.17;;;;;;;10.51;72.17;100776.09;5050924;28;20037;-65
2022/06/22 01:27:15;;;;;;;5.60;4.43;;;;;;;10.51;72.10;100779.59;5050880;28;20523;-64
2022/06/22 01:29:48;;;;;;;9.33;4.83;;;;;;;10.50;72.68;100782.44;5051611;28;20067;-64
2022/06/22 01:32:20;;;;;;;6.40;4.47;;;;;;;10.51;72.59;100781.44;5052015;28;20051;-64
2022/06/22 01:34:56;;;;;;;8.10;4.50;;;;;;;10.54;72.59;100789.09;5051129;28;20137;-64
2022/06/22 01:37:26;;;;;;;5.50;4.50;;;;;;;10.53;72.59;100784.75;5051597;28;20556;-64
2022/06/22 01:40:17;;;;;;;9.20;4.70;;;;;;;10.44;72.87;100764.44;5052061;28;20049;-65
2022/06/22 01:43:09;;;;;;;5.57;4.43;;;;;;;10.59;72.48;100784.09;5052233;28;20086;-63
2022/06/22 01:45:50;;;;;;;6.23;3.87;;;;;;;10.60;72.70;100776.94;5051880;28;20044;-64
2022/06/22 01:48:20;;;;;;;6.90;4.50;;;;;;;10.52;72.95;100762.63;5051548;28;20136;-63
2022/06/22 01:50:51;;;;;;;7.27;4.20;;;;;;;10.59;73.23;100769.97;5051623;28;20041;-65
2022/06/22 01:53:34;;;;;;;10.20;4.43;;;;;;;10.62;72.83;100780.28;5052111;28;20044;-65
2022/06/22 01:56:08;;;;;;;8.80;5.60;;;;;;;10.55;73.19;100756.13;5051245;28;20069;-64
2022/06/22 01:58:42;;;;;;;7.00;4.90;;;;;;;10.65;73.17;100775.47;5051970;28;20041;-64
2022/06/22 02:01:39;;;;;;;9.13;4.57;;;;;;;10.65;73.21;100778.13;5001418;28;1454898;-64
2022/06/22 02:04:13;;;;;;;8.97;4.63;;;;;;;10.76;73.38;100800.97;5052286;28;20071;-64
2022/06/22 02:10:35;;;;;;;7.23;4.33;;;;;;;10.78;73.75;100796.31;5047313;28;20048;-63
2022/06/22 02:13:16;;;;;;;6.10;4.23;;;;;;;10.85;73.69;100806.16;5031152;28;20559;-64
2022/06/22 02:16:15;;;;;;;5.93;4.37;;;;;;;10.85;74.07;100795.50;5051193;28;20037;-63
2022/06/22 02:18:56;;;;;;;5.93;4.63;;;;;;;10.80;73.70;100787.16;5051238;28;20039;-64
2022/06/22 02:21:41;;;;;;;6.60;4.40;;;;;;;10.93;73.91;100802.66;5051647;28;20162;-66
2022/06/22 02:24:07;;;;;;;5.73;3.67;;;;;;;11.01;74.32;100810.69;5051245;28;20086;-62
2022/06/22 02:26:51;;;;;;;6.00;4.17;;;;;;;11.01;74.59;100804.53;5052271;28;20040;-66
2022/06/22 02:29:20;;;;;;;8.57;4.83;;;;;;;10.97;74.50;100793.34;5052049;28;20136;-65
2022/06/22 02:31:46;;;;;;;;;;;;;;;11.10;74.69;100809.69;5052857;28;20043;-68
2022/06/22 02:34:16;;;;;;;5.57;3.83;;;;;;;11.06;74.35;100796.88;5033926;28;19955;-65
2022/06/22 02:36:48;;;;;;;5.27;3.83;;;;;;;11.17;75.00;100807.19;5051691;28;20098;-68
2022/06/22 02:39:14;;;;;;;5.20;4.00;;;;;;;11.15;75.32;100806.53;5050851;28;20065;-63
2022/06/22 02:44:33;;;;;;;4.27;3.60;;;;;;;11.28;75.03;100814.88;5051870;28;20036;-65
2022/06/22 02:47:14;;;;;;;6.93;3.80;;;;;;;11.35;75.17;100821.22;5054148;28;20045;-65
2022/06/22 02:49:44;;;;;;;5.73;3.57;;;;;;;11.40;75.83;100805.56;5055997;28;20044;-64
2022/06/22 02:52:15;;;;;;;7.53;3.73;;;;;;;11.83;74.72;100806.19;5056185;28;20044;-65
2022/06/22 02:54:49;;;;;;;6.40;4.30;;;;;;;13.50;69.48;100779.94;5055950;28;20033;-64
2022/06/22 02:57:19;;;;;;;4.30;3.90;;;;;;;16.34;61.04;100801.81;5055896;28;20033;-65
2022/06/22 02:59:51;;;;;;;5.77;3.53;;;;;;;18.60;53.64;100796.38;5055442;28;20063;-65
2022/06/22 03:02:20;;;;;;;6.37;4.10;;;;;;;20.37;48.00;100809.56;5038209;28;20061;-67
2022/06/22 03:04:47;;;;;;;5.75;3.75;;;;;;;21.39;44.87;100811.56;5055546;28;20551;-64
2022/06/22 03:07:14;;;;;;;6.43;3.97;;;;;;;21.83;43.32;100819.19;5055274;28;20507;-65
2022/06/22 03:09:42;;;;;;;3.57;3.27;;;;;;;21.81;43.24;100817.75;5055565;28;20044;-65
2022/06/22 03:12:12;;;;;;;8.45;4.03;;;;;;;22.03;43.14;100816.13;5055683;28;20515;-65
2022/06/22 03:14:54;;;;;;;4.47;3.83;;;;;;;22.68;42.57;100810.47;5056099;28;20040;-65
2022/06/22 03:17:26;;;;;;;6.00;3.93;;;;;;;23.55;39.92;100804.75;5055711;28;20123;-65
2022/06/22 03:19:57;;;;;;;3.50;3.20;;;;;;;24.07;39.10;100818.91;5055629;28;20484;-64
2022/06/22 03:22:31;;;;;;;4.77;3.20;;;;;;;24.42;38.72;100814.22;5055024;28;20536;-67
2022/06/22 03:25:10;;;;;;;4.57;3.70;;;;;;;24.91;37.91;100821.34;5054065;28;20044;-65
2022/06/22 03:27:44;;;;;;;2.90;2.60;;;;;;;25.17;37.17;100797.94;5055065;28;20041;-67
2022/06/22 03:30:20;;;;;;;2.75;2.55;;;;;;;25.01;37.75;100826.13;5055269;28;20128;-65
2022/06/22 03:32:49;;;;;;;2.97;2.50;;;;;;;24.63;37.85;100829.75;5054756;28;20476;-65
2022/06/22 03:35:20;;;;;;;2.85;2.65;;;;;;;24.39;38.55;100819.09;5055081;28;20041;-64
2022/06/22 03:38:20;;;;;;;3.38;3.08;;;;;;;24.89;38.10;100837.13;5055014;28;20079;-65
2022/06/22 03:40:55;;;;;;;3.30;3.03;;;;;;;24.46;38.50;100801.75;5046706;28;20554;-64
2022/06/22 03:43:41;;;;;;;4.75;2.33;;;;;;;24.56;38.88;100842.72;5054991;28;20431;-66
2022/06/22 03:46:28;;;;;;;4.43;2.83;;;;;;;24.87;38.22;100835.75;5055183;28;20120;-64
2022/06/22 03:48:57;;;;;;;4.70;2.75;;;;;;;24.87;37.35;100811.25;5054707;28;20043;-66
2022/06/22 03:51:28;;;;;;;5.30;3.03;;;;;;;24.58;37.68;100819.63;5054763;28;20045;-69
2022/06/22 03:54:10;;;;;;;3.67;2.70;;;;;;;24.68;38.07;100824.34;5054509;28;20033;-67
2022/06/22 03:56:44;;;;;;;6.20;2.97;;;;;;;24.95;37.53;100822.50;5054441;28;20408;-67
2022/06/22 03:59:10;;;;;;;4.72;3.03;;;;;;;25.39;36.53;100819.66;5055019;28;20051;-65
2022/06/22 04:01:37;;;;;;;3.88;3.05;;;;;;;25.82;35.82;100821.41;5054126;28;20107;-64
2022/06/22 04:04:03;;;;;;;5.50;2.97;;;;;;;26.35;34.87;100846.06;5054673;28;20047;-66
2022/06/22 04:06:32;;;;;;;4.43;3.08;;;;;;;26.22;34.86;100841.84;5054755;28;20041;-65
2022/06/22 04:09:07;;;;;;;4.82;2.80;;;;;;;26.09;34.95;100824.06;5053526;28;20219;-66
2022/06/22 04:12:03;;;;;;;4.20;2.47;;;;;;;26.30;35.33;100845.97;5052997;28;20041;-66
2022/06/22 04:14:43;;;;;;;5.07;3.03;;;;;;;26.30;35.19;100835.06;5052994;28;20037;-66
2022/06/22 04:17:29;;;;;;;5.35;2.78;;;;;;;26.07;35.47;100837.13;5054415;28;20259;-65
2022/06/22 04:20:11;;;;;;;5.07;2.60;;;;;;;25.97;35.11;100817.94;5054502;28;20381;-64
2022/06/22 04:22:41;;;;;;;3.25;2.63;;;;;;;25.48;35.74;100828.22;5054312;28;20032;-67
2022/06/22 04:25:26;;;;;;;3.60;2.15;;;;;;;25.70;36.15;100830.84;5054383;28;20111;-65
2022/06/22 04:27:54;;;;;;;3.97;2.90;;;;;;;25.72;35.56;100843.16;5052922;28;20131;-67
2022/06/22 04:30:32;;;;;;;3.40;2.40;;;;;;;25.55;35.72;100835.09;5054413;28;20112;-67
2022/06/22 04:33:12;;;;;;;;;;;;;;;26.35;35.52;100841.44;5053194;28;20425;-65
2022/06/22 04:35:49;;;;;;;2.22;1.95;;;;;;;25.80;34.82;100845.41;5053962;28;19916;-65
2022/06/22 04:38:47;;;;;;;1.55;1.45;;;;;;;25.37;34.41;100837.38;5053924;28;20051;-65
2022/06/22 04:41:16;;;;;;;2.03;1.67;;;;;;;25.35;34.57;100847.69;5052605;28;20041;-67
2022/06/22 04:43:42;;;;;;;3.17;2.38;;;;;;;25.41;34.49;100844.75;5054060;28;20065;-64
2022/06/22 04:46:14;;;;;;;3.38;2.25;;;;;;;24.98;34.30;100843.81;5053658;28;20531;-65
2022/06/22 04:48:46;;;;;;;5.60;2.20;;;;;;;24.77;34.47;100811.09;5053681;28;20033;-67
2022/06/22 04:51:18;;;;;;;1.73;1.48;;;;;;;25.41;33.92;100850.22;5053809;28;20032;-65
2022/06/22 04:53:54;;;;;;;2.90;2.28;;;;;;;25.36;33.40;100846.63;5053660;28;20033;-67
2022/06/22 04:56:32;;;;;;;2.05;1.75;;;;;;;25.07;34.45;100844.16;5053644;28;20068;-63
2022/06/22 04:58:59;;;;;;;4.97;1.85;;;;;;;24.72;34.13;100839.09;5053767;28;20044;-66
2022/06/22 05:01:45;;;;;;;3.75;2.50;;;;;;;24.48;34.97;100862.22;5053315;28;20060;-67
2022/06/22 05:04:33;;;;;;;2.47;1.67;;;;;;;24.63;35.17;100854.25;5053725;28;20059;-65
2022/06/22 05:07:11;;;;;;;2.35;2.03;;;;;;;24.68;34.58;100867.94;5053701;28;20041;-69
2022/06/22 05:09:49;;;;;;;3.17;1.85;;;;;;;24.72;35.01;100869.06;5052369;28;20114;-66
2022/06/22 05:12:20;;;;;;;2.05;1.80;;;;;;;24.48;35.07;100873.09;5053634;28;20043;-64
2022/06/22 05:14:48;;;;;;;2.38;1.52;;;;;;;24.25;35.24;100874.94;5053011;28;20059;-66
2022/06/22 05:17:24;;;;;;;4.50;1.88;;;;;;;23.83;35.69;100877.28;5051927;28;20048;-64
2022/06/22 05:19:50;;;;;;;2.85;1.80;;;;;;;23.47;36.74;100875.84;5053393;28;20029;-66
2022/06/22 05:22:16;;;;;;;2.20;2.00;;;;;;;23.19;37.38;100876.69;5053145;28;20416;-64
2022/06/22 05:24:49;;;;;;;6.20;2.15;;;;;;;22.47;38.77;100879.78;5052822;28;20121;-68
2022/06/22 05:27:22;;;;;;;4.30;1.60;;;;;;;21.35;40.60;100843.72;5052763;28;20440;-66
2022/06/22 05:29:54;;;;;;;5.95;1.77;;;;;;;20.29;43.41;100898.31;5052793;28;20049;-65
2022/06/22 05:32:49;;;;;;;6.47;2.00;;;;;;;18.77;47.67;100900.06;5053013;28;20514;-66
2022/06/22 05:35:20;;;;;;;2.42;2.20;;;;;;;17.90;49.47;100893.16;5051941;28;20346;-64
2022/06/22 05:37:52;;;;;;;4.78;2.03;;;;;;;17.50;50.58;100897.66;5053703;28;20084;-65
2022/06/22 05:40:23;;;;;;;3.90;2.28;;;;;;;17.33;52.44;100899.03;5053144;28;20392;-63
2022/06/22 05:42:50;;;;;;;3.38;1.92;;;;;;;17.11;52.80;100897.56;5053123;28;20049;-67
2022/06/22 05:45:19;;;;;;;4.63;2.08;;;;;;;16.99;52.31;100878.47;5052954;28;20036;-64
2022/06/22 05:47:45;;;;;;;3.95;2.40;;;;;;;17.22;52.84;100896.97;5052622;28;20471;-64
2022/06/22 05:50:38;;;;;;;2.97;2.10;;;;;;;17.23;52.61;100890.53;5051314;28;20047;-66
2022/06/22 05:53:24;;;;;;;2.45;1.85;;;;;;;17.02;52.31;100895.03;5052431;28;20408;-66
2022/06/22 05:56:07;;;;;;;4.40;2.17;;;;;;;16.92;52.39;100899.13;5052357;28;20174;-67
2022/06/22 05:58:42;;;;;;;5.57;2.42;;;;;;;16.87;53.59;100893.53;5052251;28;20451;-64
2022/06/22 06:01:59;;;;;;;4.00;2.40;;;;;;;16.95;53.73;100898.72;5052577;28;20060;-64
2022/06/22 06:04:34;;;;;;;4.00;1.90;;;;;;;16.98;53.72;100896.47;5035063;28;20067;-66
2022/06/22 06:07:06;;;;;;;7.70;2.07;;;;;;;16.93;53.93;100896.25;5052376;28;20324;-66
2022/06/22 06:09:33;;;;;;;2.35;2.00;;;;;;;17.01;54.48;100901.44;5052556;28;20470;-67
2022/06/22 06:12:21;;;;;;;2.55;1.92;;;;;;;17.08;54.11;100893.41;5052722;28;20044;-66
2022/06/22 06:14:51;;;;;;;3.33;2.20;;;;;;;17.01;52.36;100898.75;5053400;28;20037;-63
2022/06/22 06:17:35;;;;;;;3.35;1.77;;;;;;;17.01;52.87;100897.91;5054645;28;20041;-66
2022/06/22 06:20:04;;;;;;;4.40;2.03;;;;;;;16.92;52.56;100899.13;5053765;28;20069;-65
2022/06/22 06:22:30;;;;;;;2.85;1.58;;;;;;;16.86;51.87;100892.69;5052460;28;20083;-65
2022/06/22 06:27:56;;;;;;;5.43;1.90;;;;;;;16.77;50.63;100887.66;5052248;28;20157;-64
2022/06/22 06:30:29;;;;;;;7.72;2.13;;;;;;;16.71;51.60;100881.22;5052246;28;20528;-67
2022/06/22 06:33:04;;;;;;;2.78;1.50;;;;;;;16.87;53.94;100899.75;5052189;28;20033;-67
2022/06/22 06:35:39;;;;;;;2.88;1.63;;;;;;;16.97;52.20;100904.72;5052282;28;20345;-68
2022/06/22 06:38:27;;;;;;;1.60;1.40;;;;;;;17.02;52.09;100900.41;5051069;28;20037;-63
2022/06/22 06:41:14;;;;;;;2.67;1.57;;;;;;;17.04;49.28;100894.81;5052592;28;20086;-65
2022/06/22 06:43:47;;;;;;;2.20;1.48;;;;;;;17.03;49.95;100894.00;5052105;28;20496;-66
2022/06/22 06:46:25;;;;;;;1.87;1.33;;;;;;;17.23;50.03;100912.91;5051910;28;20115;-66
2022/06/22 06:49:18;;;;;;;2.70;1.10;;;;;;;17.24;48.94;100898.41;5051806;28;20068;-65
2022/06/22 06:51:54;;;;;;;3.17;1.60;;;;;;;17.10;49.12;100885.97;5052161;28;20463;-65
2022/06/22 06:54:25;;;;;;;2.77;1.43;;;;;;;17.14;49.66;100918.69;5051569;28;20041;-64
2022/06/22 06:57:04;;;;;;;1.93;1.20;;;;;;;16.99;48.23;100910.75;5051510;28;20127;-65
2022/06/22 06:59:31;;;;;;;3.27;1.20;;;;;;;17.00;48.32;100910.53;5052274;28;20043;-66
2022/06/22 07:02:05;;;;;;;2.47;1.40;;;;;;;17.14;47.87;100913.28;5051349;28;20071;-66
2022/06/22 07:04:34;;;;;;;2.17;1.30;;;;;;;16.97;47.43;100873.28;5051571;28;20045;-64
2022/06/22 07:07:10;;;;;;;6.90;1.70;;;;;;;17.14;47.45;100902.53;5050202;28;20041;-65
2022/06/22 07:09:39;;;;;;;2.70;1.40;;;;;;;16.90;46.47;100864.38;5051707;28;20496;-66
2022/06/22 07:12:12;;;;;;;1.40;1.27;;;;;;;17.18;45.82;100919.94;5051668;28;20095;-66
2022/06/22 07:14:41;;;;;;;1.70;1.23;;;;;;;17.32;45.95;100918.94;5051741;28;20049;-64
2022/06/22 07:17:09;;;;;;;;;;;;;;;17.50;44.96;100927.25;5052314;28;20090;-66
2022/06/22 07:19:47;;;;;;;2.73;2.00;;;;;;;17.40;45.61;100932.22;5051662;28;20007;-66
2022/06/22 07:22:32;;;;;;;2.10;1.35;;;;;;;17.32;45.94;100927.81;5051899;28;20083;-64
2022/06/22 07:25:15;;;;;;;1.97;1.33;;;;;;;17.38;46.19;100917.31;5051702;28;20047;-66
2022/06/22 07:27:53;;;;;;;1.33;1.23;;;;;;;17.43;46.06;100912.13;5051728;28;20068;-65
2022/06/22 07:30:24;;;;;;;4.90;1.38;;;;;;;17.66;46.13;100923.38;5051480;28;20553;-64
2022/06/22 07:33:09;;;;;;;2.07;1.37;;;;;;;17.71;45.57;100906.63;5053556;28;20087;-65
2022/06/22 07:35:46;;;;;;;6.43;1.60;;;;;;;17.99;45.71;100918.03;5055280;28;20083;-65
2022/06/22 07:38:24;;;;;;;2.50;1.67;;;;;;;18.26;44.29;100924.25;5054952;28;20036;-65
2022/06/22 07:44:04;;;;;;;2.17;1.27;;;;;;;18.49;43.86;100913.81;5055222;28;20098;-65
2022/06/22 07:46:48;;;;;;;1.25;1.10;;;;;;;18.37;42.35;100922.78;5054806;28;20047;-65
2022/06/22 07:49:35;;;;;;;3.63;1.80;;;;;;;18.26;42.21;100919.69;5053565;28;20384;-65
2022/06/22 07:52:03;;;;;;;1.30;1.15;;;;;;;18.27;42.10;100926.72;5055109;28;20435;-66
2022/06/22 07:54:32;;;;;;;1.10;0.98;;;;;;;18.43;41.17;100936.25;5054781;28;20049;-64
2022/06/22 07:56:58;;;;;;;3.30;1.13;;;;;;;18.67;41.63;100926.69;5055246;28;20028;-66
2022/06/22 07:59:37;;;;;;;2.08;0.90;;;;;;;18.66;41.34;100916.94;5055163;28;20035;-65
2022/06/22 08:02:13;;;;;;;1.98;1.13;;;;;;;18.80;42.63;100936.63;5054822;28;20083;-65
2022/06/22 08:04:46;;;;;;;1.90;1.48;;;;;;;18.76;42.38;100921.88;5054445;28;20073;-64
2022/06/22 08:07:18;;;;;;;3.05;1.10;;;;;;;18.60;42.87;100925.84;5054664;28;20434;-65
2022/06/22 08:10:07;;;;;;;1.75;1.35;;;;;;;18.44;43.13;100931.66;5054385;28;20064;-67
2022/06/22 08:12:55;;;;;;;6.60;1.75;;;;;;;18.15;43.72;100933.78;5042366;28;20041;-65
2022/06/22 08:15:22;;;;;;;3.78;1.15;;;;;;;17.90;44.61;100924.66;5053088;28;20036;-65
2022/06/22 08:17:52;;;;;;;1.35;0.90;;;;;;;17.85;44.18;100936.03;5052938;28;20124;-66
2022/06/22 08:20:22;;;;;;;3.13;1.60;;;;;;;17.79;44.82;100920.72;5054092;28;20051;-66
2022/06/22 08:22:49;;;;;;;4.05;1.45;;;;;;;18.00;45.01;100941.25;5054531;28;20037;-66
2022/06/22 08:25:19;;;;;;;2.58;1.08;;;;;;;17.93;44.61;100918.88;5055292;28;20087;-65
2022/06/22 08:27:45;;;;;;;1.65;1.38;;;;;;;18.04;44.39;100931.72;5055405;28;20040;-65
2022/06/22 08:30:13;;;;;;;1.30;1.20;;;;;;;17.87;44.31;100898.13;5054797;28;20044;-65
2022/06/22 08:32:44;;;;;;;3.38;1.30;;;;;;;17.90;44.69;100909.31;5054429;28;20037;-66
2022/06/22 08:35:19;;;;;;;1.30;1.20;;;;;;;17.98;44.50;100920.94;5055304;28;20511;-65
2022/06/22 08:37:48;;;;;;;2.00;1.52;;;;;;;18.20;43.98;100925.06;5055662;28;20037;-66
2022/06/22 08:40:53;;;;;;;2.42;1.48;;;;;;;18.25;44.06;100914.50;5054215;28;20033;-66
2022/06/22 08:43:40;;;;;;;1.50;1.40;;;;;;;18.54;44.19;100935.63;5053321;28;20037;-66
2022/06/22 08:46:41;;;;;;;2.67;1.13;;;;;;;18.47;44.27;100945.56;5054323;28;20048;-65
2022/06/22 08:49:16;;;;;;;1.10;1.00;;;;;;;18.53;43.86;100938.53;5054107;28;20100;-65
2022/06/22 08:52:18;;;;;;;1.63;1.10;;;;;;;18.70;43.99;100934.34;5053629;28;20049;-64
2022/06/22 08:55:01;;;;;;;7.88;1.63;;;;;;;18.52;43.58;100877.53;5053910;28;20107;-65
2022/06/22 08:57:38;;;;;;;1.10;1.00;;;;;;;18.92;43.77;100939.47;5053583;28;20044;-66
2022/06/22 09:00:07;;;;;;;2.45;1.63;;;;;;;18.80;43.46;100942.84;5053138;28;20497;-65
2022/06/22 09:02:54;;;;;;;7.45;1.02;;;;;;;18.79;43.75;100946.59;5053955;28;20041;-66
2022/06/22 09:06:00;;;;;;;2.25;1.13;;;;;;;18.63;41.68;100925.44;5053298;28;20044;-66
2022/06/22 09:08:50;;;;;;;3.50;1.50;;;;;;;18.83;42.26;100936.19;5051874;28;20040;-65
2022/06/22 09:11:43;;;;;;;4.03;1.95;;;;;;;18.87;42.23;100932.84;5053240;28;20041;-65
2022/06/22 09:14:27;;;;;;;1.65;1.20;;;;;;;18.94;41.96;100937.41;5032071;28;20045;-66
2022/06/22 09:17:20;;;;;;;2.40;1.30;;;;;;;18.85;41.97;100928.72;5053405;28;20119;-66
2022/06/22 09:20:03;;;;;;;1.83;1.33;;;;;;;18.73;42.48;100919.59;5053203;28;20392;-69
2022/06/22 09:22:52;;;;;;;1.92;1.27;;;;;;;18.95;41.93;100939.06;5052916;28;20044;-67
2022/06/22 09:25:29;;;;;;;1.20;1.10;;;;;;;19.10;41.52;100947.72;5052813;28;20122;-64
2022/06/22 09:28:10;;;;;;;1.15;1.02;;;;;;;19.19;41.33;100936.47;5052843;28;20048;-66
2022/06/22 09:30:36;;;;;;;2.38;1.27;;;;;;;19.28;40.89;100947.84;5053106;28;20037;-66
2022/06/22 09:33:23;;;;;;;1.48;1.27;;;;;;;19.44;41.15;100939.25;5053642;28;20041;-66
2022/06/22 09:36:13;;;;;;;3.80;2.08;;;;;;;19.73;40.50;100942.44;5053436;28;20536;-64
2022/06/22 09:38:58;;;;;;;2.40;1.42;;;;;;;19.89;39.25;100941.88;5051611;28;20089;-66
2022/06/22 09:41:50;;;;;;;1.80;1.10;;;;;;;19.76;39.58;100947.41;5052578;28;20091;-66
2022/06/22 09:44:27;;;;;;;3.63;0.98;;;;;;;19.96;39.06;100948.09;5051358;28;20128;-65
2022/06/22 09:47:11;;;;;;;0.90;0.47;;;;;;;20.04;39.18;100928.88;5052713;28;20525;-66
2022/06/22 09:49:42;;;;;;;3.35;1.23;;;;;;;20.01;38.93;100950.94;5052602;28;20044;-68
2022/06/22 09:52:36;;;;;;;1.55;1.13;;;;;;;19.76;40.32;100948.22;5052652;28;20037;-67
2022/06/22 09:58:34;;;;;;;2.95;2.45;;;;;;;19.48;40.54;100956.69;5052569;28;20037;-67
2022/06/22 10:01:10;;;;;;;1.45;0.93;;;;;;;19.25;40.75;100950.16;5052416;28;20057;-66
2022/06/22 10:04:01;;;;;;;1.38;1.27;;;;;;;19.03;40.55;100941.50;5052525;28;20045;-66
2022/06/22 10:06:48;;;;;;;1.92;1.05;;;;;;;19.10;41.82;100940.47;5052819;28;20029;-65
2022/06/22 10:09:31;;;;;;;1.70;0.98;;;;;;;19.37;41.97;100941.16;5052463;28;20048;-65
2022/06/22 10:12:09;;;;;;;2.47;2.03;;;;;;;19.53;40.42;100942.53;5052088;28;20374;-68
2022/06/22 10:14:56;;;;;;;2.97;0.90;;;;;;;19.69;40.21;100939.34;5052063;28;20037;-66
2022/06/22 10:17:49;;;;;;;2.83;2.00;;;;;;;19.67;40.07;100919.00;5052125;28;20041;-66
2022/06/22 10:20:21;;;;;;;1.08;0.93;;;;;;;19.67;40.29;100927.09;5051945;28;20044;-65
2022/06/22 10:23:05;;;;;;;2.13;0.85;;;;;;;19.60;40.45;100935.22;5052046;28;20607;-69
2022/06/22 10:25:53;;;;;;;1.58;1.08;;;;;;;19.26;40.53;100933.72;5052500;28;20048;-65
2022/06/22 10:28:27;;;;;;;;;;;;;;;19.24;41.33;100938.50;5053620;28;20045;-65
2022/06/22 10:31:18;;;;;;;2.67;1.08;;;;;;;19.24;41.05;100943.91;5054036;28;19916;-63
2022/06/22 10:33:58;;;;;;;2.65;0.90;;;;;;;19.27;39.98;100948.06;5054231;28;20048;-64
2022/06/22 10:36:33;;;;;;;1.58;1.17;;;;;;;19.25;39.82;100945.56;5053372;28;20041;-65
2022/06/22 10:39:17;;;;;;;3.38;1.13;;;;;;;19.12;40.11;100924.03;5053452;28;20041;-65
2022/06/22 10:45:13;;;;;;;2.78;1.52;;;;;;;19.35;40.15;100939.69;5052845;28;20066;-67
2022/06/22 10:48:16;;;;;;;0.85;0.73;;;;;;;19.40;40.06;100948.00;5052685;28;20049;-65
2022/06/22 10:51:03;;;;;;;1.35;1.05;;;;;;;19.49;39.30;100942.13;5051929;28;20116;-63
2022/06/22 10:54:00;;;;;;;3.63;1.67;;;;;;;19.58;39.70;100947.28;5047700;28;20052;-68
2022/06/22 10:56:41;;;;;;;4.30;1.50;;;;;;;19.51;40.17;100939.19;5051653;28;20123;-65
2022/06/22 10:59:13;;;;;;;1.00;0.90;;;;;;;19.49;40.49;100952.09;5052465;28;20496;-66
2022/06/22 11:01:48;;;;;;;1.90;1.15;;;;;;;19.57;39.59;100953.75;5051701;28;20080;-68
2022/06/22 11:04:42;;;;;;;3.05;1.02;;;;;;;19.44;39.08;100950.06;5051863;28;20068;-67
2022/06/22 11:07:29;;;;;;;;;;;;;;;19.46;40.04;100947.13;5052746;28;20049;-66
2022/06/22 11:10:28;;;;;;;1.10;0.98;;;;;;;19.23;40.14;100939.56;5055321;28;19916;-64
2022/06/22 11:13:14;;;;;;;2.47;1.00;;;;;;;19.19;39.96;100935.63;5055422;28;20037;-63
2022/06/22 11:15:57;;;;;;;1.83;1.10;;;;;;;19.34;40.61;100917.25;5055431;28;20037;-64
2022/06/22 11:18:25;;;;;;;5.68;3.20;;;;;;;19.68;41.28;100934.97;5055502;28;20040;-64
2022/06/22 11:21:03;;;;;;;4.60;1.10;;;;;;;20.01;40.22;100939.31;5055153;28;20039;-67
2022/06/22 11:23:47;;;;;;;1.98;1.13;;;;;;;20.34;39.39;100944.44;5055100;28;20106;-65
2022/06/22 11:32:57;;;;;;;1.00;0.77;;;;;;;20.30;38.91;100937.81;5045581;28;20504;-64
2022/06/22 11:35:44;;;;;;;3.63;1.42;;;;;;;20.15;41.76;100938.13;5055002;28;20029;-67
2022/06/22 11:38:31;;;;;;;2.57;1.70;;;;;;;20.04;43.40;100950.50;5054816;28;20036;-65
2022/06/22 11:41:30;;;;;;;2.38;1.45;;;;;;;19.77;41.15;100938.25;5053633;28;20130;-64
2022/06/22 11:44:25;;;;;;;1.42;1.00;;;;;;;19.38;41.16;100933.88;5054962;28;20037;-66
2022/06/22 11:46:54;;;;;;;4.95;1.92;;;;;;;19.30;43.05;100937.66;5054763;28;20032;-67
2022/06/22 11:49:41;;;;;;;2.20;1.58;;;;;;;19.40;43.64;100935.31;5054693;28;20106;-66
2022/06/22 11:52:22;;;;;;;6.00;1.63;;;;;;;19.47;43.77;100932.59;5054753;28;20043;-65
2022/06/22 11:55:16;;;;;;;3.10;2.13;;;;;;;19.50;43.05;100932.97;5054772;28;20033;-65
2022/06/22 11:58:09;;;;;;;3.28;1.23;;;;;;;19.66;41.50;100925.41;5055243;28;20515;-68
2022/06/22 12:00:53;;;;;;;3.53;1.23;;;;;;;19.67;40.32;100922.53;5054471;28;20053;-66
2022/06/22 12:03:40;;;;;;;3.28;1.23;;;;;;;19.79;40.45;100922.63;5054610;28;20083;-65
2022/06/22 12:06:28;;;;;;;2.63;1.00;;;;;;;19.75;39.71;100916.00;5053726;28;20041;-65
2022/06/22 12:09:12;;;;;;;4.38;1.42;;;;;;;19.69;39.86;100922.31;5054796;28;20041;-63
2022/06/22 12:11:58;;;;;;;2.17;1.25;;;;;;;19.60;39.98;100900.09;5036385;28;20047;-65
2022/06/22 12:15:07;;;;;;;3.50;1.20;;;;;;;19.94;40.63;100928.53;5054546;28;20025;-64
2022/06/22 12:18:01;;;;;;;7.35;2.25;;;;;;;20.01;41.29;100923.91;5053702;28;20040;-66
2022/06/22 12:21:09;;;;;;;8.38;3.22;;;;;;;20.00;41.00;100911.44;5054516;28;20040;-65
2022/06/22 12:23:43;;;;;;;;;;;;;;;20.01;41.20;100926.63;5054783;28;20037;-63
2022/06/22 12:26:21;;;;;;;3.28;1.75;;;;;;;20.03;41.66;100924.53;5054116;28;19923;-65
2022/06/22 12:29:05;;;;;;;5.85;2.38;;;;;;;20.06;41.15;100921.38;5054247;28;20040;-67
2022/06/22 12:31:37;;;;;;;11.75;1.85;;;;;;;19.93;40.98;100905.25;5054121;28;20036;-66
2022/06/22 12:34:38;;;;;;;6.32;2.10;;;;;;;20.05;41.69;100921.59;5054071;28;20407;-68
2022/06/22 12:37:32;;;;;;;1.83;1.50;;;;;;;19.78;41.15;100881.28;5041791;28;20040;-65
2022/06/22 12:40:29;;;;;;;4.55;1.48;;;;;;;20.08;41.87;100919.28;5053474;28;20052;-64
2022/06/22 12:43:20;;;;;;;6.95;1.70;;;;;;;20.08;42.88;100918.44;5053910;28;20112;-66
2022/06/22 12:45:56;;;;;;;3.08;1.48;;;;;;;19.89;43.48;100924.84;5043253;28;20053;-66
2022/06/22 12:48:33;;;;;;;14.25;2.05;;;;;;;19.85;43.79;100921.75;5053808;28;20036;-70